createdAt,value
2018-08-12T00:02:56.961Z,101479.52
2018-08-12T00:06:01.668Z,101482.76
2018-08-12T00:09:08.982Z,101476.89
2018-08-12T00:12:13.373Z,101479.31
2018-08-12T00:15:20.845Z,101479.19
2018-08-12T00:18:25.057Z,101471.70
2018-08-12T00:21:29.513Z,101468.55
2018-08-12T00:24:33.778Z,101466.69
2018-08-12T00:27:38.144Z,101466.19
2018-08-12T00:30:42.433Z,101467.87
2018-08-12T00:33:46.859Z,101471.77
2018-08-12T00:36:51.138Z,101472.65
2018-08-12T00:39:55.495Z,101473.02
2018-08-12T00:42:59.827Z,101477.30
2018-08-12T00:46:04.148Z,101470.29
2018-08-12T00:49:08.582Z,101465.02
2018-08-12T00:52:12.879Z,101455.42
2018-08-12T00:55:18.765Z,101461.17
2018-08-12T00:58:23.045Z,101453.36
2018-08-12T01:01:27.741Z,101453.36
2018-08-12T01:04:32.104Z,101450.33
2018-08-12T01:07:36.429Z,101454.35
2018-08-12T01:10:40.723Z,101446.72
2018-08-12T01:13:45.056Z,101446.84
2018-08-12T01:16:49.396Z,101448.26
2018-08-12T01:19:53.732Z,101441.91
2018-08-12T01:22:58.095Z,101443.27
2018-08-12T01:26:02.681Z,101442.47
2018-08-12T01:29:07.345Z,101442.20
2018-08-12T01:32:11.667Z,101443.12
2018-08-12T01:35:16.237Z,101451.92
2018-08-12T01:38:20.755Z,101453.38
2018-08-12T01:41:25.146Z,101446.97
2018-08-12T01:44:29.474Z,101437.52
2018-08-12T01:47:33.807Z,101438.89
2018-08-12T01:50:38.143Z,101435.41
2018-08-12T01:53:42.466Z,101441.43
2018-08-12T01:56:46.815Z,101439.16
2018-08-12T01:59:51.329Z,101436.44
2018-08-12T02:02:55.726Z,101433.36
2018-08-12T02:06:00.028Z,101429.54
2018-08-12T02:09:06.049Z,101424.83
2018-08-12T02:12:10.433Z,101419.27
2018-08-12T02:15:14.728Z,101414.17
2018-08-12T02:18:19.132Z,101416.87
2018-08-12T02:21:23.411Z,101405.68
2018-08-12T02:24:27.651Z,101404.00
2018-08-12T02:27:32.017Z,101407.19
2018-08-12T02:30:36.402Z,101401.62
2018-08-12T02:33:40.733Z,101402.55
2018-08-12T02:36:45.062Z,101403.76
2018-08-12T02:39:49.300Z,101400.57
2018-08-12T02:42:53.588Z,101399.60
2018-08-12T02:45:57.907Z,101399.16
2018-08-12T02:49:02.650Z,101391.34
2018-08-12T02:52:07.058Z,101383.47
2018-08-12T02:55:12.136Z,101380.91
2018-08-12T02:58:16.452Z,101386.13
2018-08-12T03:01:21.109Z,101385.34
2018-08-12T03:04:25.508Z,101376.75
2018-08-12T03:07:29.789Z,101381.67
2018-08-12T03:10:34.088Z,101377.03
2018-08-12T03:13:38.402Z,101382.83
2018-08-12T03:16:42.758Z,101382.00
2018-08-12T03:19:47.085Z,101372.44
2018-08-12T03:22:51.352Z,101370.30
2018-08-12T03:25:55.612Z,101371.61
2018-08-12T03:28:59.899Z,101373.00
2018-08-12T03:32:04.222Z,101368.66
2018-08-12T03:35:08.555Z,101367.34
2018-08-12T03:38:12.866Z,101363.39
2018-08-12T03:41:17.181Z,101361.66
2018-08-12T03:44:21.512Z,101356.86
2018-08-12T03:47:25.852Z,101362.91
2018-08-12T03:50:30.134Z,101364.17
2018-08-12T03:53:34.624Z,101367.17
2018-08-12T03:56:39.009Z,101368.86
2018-08-12T03:59:43.313Z,101373.69
2018-08-12T04:02:48.590Z,101373.17
2018-08-12T04:05:52.873Z,101361.82
2018-08-12T04:08:57.185Z,101357.08
2018-08-12T04:12:01.489Z,101366.30
2018-08-12T04:15:07.422Z,101367.66
2018-08-12T04:18:11.651Z,101361.65
2018-08-12T04:21:15.933Z,101363.44
2018-08-12T04:24:20.207Z,101356.09
2018-08-12T04:27:24.533Z,101358.70
2018-08-12T04:30:28.860Z,101357.00
2018-08-12T04:33:33.117Z,101352.22
2018-08-12T04:36:37.544Z,101356.20
2018-08-12T04:39:42.436Z,101353.64
2018-08-12T04:42:46.750Z,101351.03
2018-08-12T04:45:51.045Z,101351.90
2018-08-12T04:48:55.409Z,101355.85
2018-08-12T04:51:59.727Z,101351.50
2018-08-12T04:55:04.005Z,101350.24
2018-08-12T04:58:08.342Z,101348.66
2018-08-12T05:01:12.652Z,101348.43
2018-08-12T05:04:17.173Z,101348.11
2018-08-12T05:07:21.633Z,101353.05
2018-08-12T05:10:25.987Z,101358.39
2018-08-12T05:13:30.373Z,101357.19
2018-08-12T05:16:34.697Z,101359.95
2018-08-12T05:19:38.973Z,101358.73
2018-08-12T05:22:43.252Z,101360.59
2018-08-12T05:25:47.515Z,101352.88
2018-08-12T05:28:51.845Z,101349.95
2018-08-12T05:31:56.167Z,101351.78
2018-08-12T05:35:00.461Z,101353.21
2018-08-12T05:38:04.808Z,101353.70
2018-08-12T05:41:09.081Z,101356.41
2018-08-12T05:44:13.441Z,101353.03
2018-08-12T05:47:17.756Z,101346.16
2018-08-12T05:50:22.027Z,101344.46
2018-08-12T05:53:26.727Z,101337.52
2018-08-12T05:56:30.989Z,101332.78
2018-08-12T05:59:35.327Z,101333.75
2018-08-12T06:02:39.722Z,101329.03
2018-08-12T06:05:43.988Z,101323.88
2018-08-12T06:08:48.328Z,101334.02
2018-08-12T06:11:52.633Z,101335.78
2018-08-12T06:14:56.899Z,101328.82
2018-08-12T06:18:01.244Z,101326.23
2018-08-12T06:21:05.642Z,101313.15
2018-08-12T06:24:09.982Z,101324.63
2018-08-12T06:27:14.352Z,101320.31
2018-08-12T06:30:18.625Z,101322.94
2018-08-12T06:33:22.926Z,101325.97
2018-08-12T06:36:27.266Z,101325.55
2018-08-12T06:39:31.541Z,101325.14
2018-08-12T06:42:35.831Z,101324.30
2018-08-12T06:45:40.263Z,101320.83
2018-08-12T06:48:44.699Z,101318.72
2018-08-12T06:51:49.022Z,101318.31
2018-08-12T06:54:53.308Z,101315.75
2018-08-12T06:57:57.633Z,101313.56
2018-08-12T07:01:01.953Z,101313.56
2018-08-12T07:04:06.381Z,101307.45
2018-08-12T07:07:10.692Z,101306.16
2018-08-12T07:10:15.968Z,101303.53
2018-08-12T07:13:20.357Z,101302.70
2018-08-12T07:16:24.657Z,101299.30
2018-08-12T07:19:29.029Z,101303.24
2018-08-12T07:22:33.320Z,101300.60
2018-08-12T07:25:37.611Z,101299.75
2018-08-12T07:28:41.931Z,101297.09
2018-08-12T07:31:46.265Z,101292.28
2018-08-12T07:34:50.577Z,101296.66
2018-08-12T07:37:54.917Z,101304.10
2018-08-12T07:40:59.197Z,101303.21
2018-08-12T07:44:03.568Z,101299.68
2018-08-12T07:47:07.953Z,101299.23
2018-08-12T07:50:12.432Z,101289.15
2018-08-12T07:53:16.806Z,101285.66
2018-08-12T07:56:21.082Z,101287.33
2018-08-12T07:59:25.437Z,101300.03
2018-08-12T08:02:29.777Z,101292.64
2018-08-12T08:05:34.032Z,101293.52
2018-08-12T08:08:38.381Z,101301.84
2018-08-12T08:11:43.259Z,101298.77
2018-08-12T08:14:47.612Z,101301.78
2018-08-12T08:17:52.046Z,101294.67
2018-08-12T08:20:56.415Z,101290.19
2018-08-12T08:24:00.772Z,101294.94
2018-08-12T08:27:05.134Z,101285.70
2018-08-12T08:30:12.177Z,101287.81
2018-08-12T08:33:16.557Z,101283.94
2018-08-12T08:36:20.947Z,101284.81
2018-08-12T08:39:25.413Z,101279.05
2018-08-12T08:42:29.728Z,101285.63
2018-08-12T08:45:34.028Z,101285.63
2018-08-12T08:48:38.334Z,101284.34
2018-08-12T08:51:42.690Z,101287.39
2018-08-12T08:54:46.945Z,101277.76
2018-08-12T08:57:51.271Z,101279.55
2018-08-12T09:00:55.576Z,101283.86
2018-08-12T09:03:59.956Z,101285.17
2018-08-12T09:07:04.249Z,101281.28
2018-08-12T09:10:10.458Z,101278.20
2018-08-12T09:13:14.820Z,101279.64
2018-08-12T09:16:19.138Z,101283.54
2018-08-12T09:19:23.441Z,101279.19
2018-08-12T09:22:28.340Z,101277.86
2018-08-12T09:25:32.725Z,101282.18
2018-08-12T09:28:37.062Z,101277.73
2018-08-12T09:31:41.366Z,101282.94
2018-08-12T09:34:45.781Z,101277.17
2018-08-12T09:37:50.112Z,101277.17
2018-08-12T09:40:54.541Z,101280.28
2018-08-12T09:43:58.826Z,101277.20
2018-08-12T09:47:03.175Z,101278.55
2018-08-12T09:50:08.548Z,101274.20
2018-08-12T09:53:12.911Z,101276.84
2018-08-12T09:56:17.181Z,101273.39
2018-08-12T09:59:21.609Z,101273.86
2018-08-12T10:02:25.985Z,101272.96
2018-08-12T10:05:30.337Z,101267.73
2018-08-12T10:08:34.644Z,101268.59
2018-08-12T10:11:39.363Z,101276.48
2018-08-12T10:14:43.682Z,101267.73
2018-08-12T10:17:49.983Z,101264.67
2018-08-12T10:20:54.293Z,101265.07
2018-08-12T10:23:58.721Z,101265.48
2018-08-12T10:27:03.114Z,101260.17
2018-08-12T10:30:10.374Z,101255.77
2018-08-12T10:33:14.720Z,101251.28
2018-08-12T10:36:19.002Z,101253.38
2018-08-12T10:39:23.344Z,101248.10
2018-08-12T10:42:27.664Z,101245.02
2018-08-12T10:45:31.989Z,101241.45
2018-08-12T10:48:36.347Z,101245.33
2018-08-12T10:51:40.635Z,101241.38
2018-08-12T10:54:44.962Z,101242.62
2018-08-12T10:57:49.284Z,101248.34
2018-08-12T11:00:53.693Z,101241.10
2018-08-12T11:03:58.020Z,101243.32
2018-08-12T11:07:02.450Z,101237.64
2018-08-12T11:10:08.326Z,101241.97
2018-08-12T11:13:12.562Z,101234.14
2018-08-12T11:16:16.858Z,101238.89
2018-08-12T11:19:21.274Z,101234.30
2018-08-12T11:22:25.690Z,101229.73
2018-08-12T11:25:29.960Z,101233.77
2018-08-12T11:28:34.345Z,101234.75
2018-08-12T11:31:38.637Z,101223.84
2018-08-12T11:34:42.983Z,101231.05
2018-08-12T11:37:47.396Z,101224.05
2018-08-12T11:40:51.809Z,101213.68
2018-08-12T11:43:56.113Z,101226.87
2018-08-12T11:47:00.428Z,101224.69
2018-08-12T11:50:06.106Z,101215.95
2018-08-12T11:53:10.493Z,101216.54
2018-08-12T11:56:14.759Z,101214.91
2018-08-12T11:59:19.073Z,101218.87
2018-08-12T12:02:23.434Z,101221.96
2018-08-12T12:05:27.753Z,101218.09
2018-08-12T12:08:32.355Z,101218.09
2018-08-12T12:11:36.686Z,101214.67
2018-08-12T12:14:40.983Z,101219.03
2018-08-12T12:17:45.804Z,101215.55
2018-08-12T12:20:50.162Z,101208.17
2018-08-12T12:23:54.490Z,101202.48
2018-08-12T12:26:58.841Z,101206.00
2018-08-12T12:30:03.239Z,101205.56
2018-08-12T12:33:07.866Z,101206.47
2018-08-12T12:36:12.213Z,101208.19
2018-08-12T12:39:16.539Z,101210.39
2018-08-12T12:42:20.861Z,101217.84
2018-08-12T12:45:25.249Z,101213.51
2018-08-12T12:48:29.615Z,101215.71
2018-08-12T12:51:33.966Z,101208.73
2018-08-12T12:54:38.350Z,101207.41
2018-08-12T12:57:42.728Z,101213.10
2018-08-12T13:00:47.025Z,101212.66
2018-08-12T13:03:51.361Z,101203.50
2018-08-12T13:06:57.157Z,101196.50
2018-08-12T13:10:01.470Z,101199.52
2018-08-12T13:13:05.871Z,101194.28
2018-08-12T13:16:10.188Z,101195.56
2018-08-12T13:19:14.717Z,101192.48
2018-08-12T13:22:19.141Z,101192.91
2018-08-12T13:25:24.096Z,101189.39
2018-08-12T13:28:28.385Z,101181.52
2018-08-12T13:31:32.958Z,101178.44
2018-08-12T13:34:37.342Z,101171.91
2018-08-12T13:37:41.882Z,101169.30
2018-08-12T13:40:46.247Z,101169.73
2018-08-12T13:43:50.563Z,101161.86
2018-08-12T13:46:54.920Z,101156.13
2018-08-12T13:49:59.190Z,101152.62
2018-08-12T13:53:03.605Z,101139.50
2018-08-12T13:56:07.981Z,101134.25
2018-08-12T13:59:12.499Z,101130.27
2018-08-12T14:02:16.920Z,101132.50
2018-08-12T14:05:21.504Z,101130.69
2018-08-12T14:08:25.963Z,101124.56
2018-08-12T14:11:30.257Z,101118.02
2018-08-12T14:14:34.574Z,101118.03
2018-08-12T14:17:39.271Z,101116.75
2018-08-12T14:20:43.649Z,101107.61
2018-08-12T14:23:48.059Z,101094.02
2018-08-12T14:26:52.312Z,101094.53
2018-08-12T14:29:56.641Z,101089.64
2018-08-12T14:33:01.026Z,101085.73
2018-08-12T14:36:05.465Z,101076.99
2018-08-12T14:39:10.750Z,101071.33
2018-08-12T14:42:15.053Z,101075.17
2018-08-12T14:45:19.477Z,101072.11
2018-08-12T14:48:23.868Z,101065.56
2018-08-12T14:51:28.141Z,101062.98
2018-08-12T14:54:32.455Z,101056.00
2018-08-12T14:57:36.824Z,101047.72
2018-08-12T15:00:41.144Z,101043.77
2018-08-12T15:03:45.454Z,101044.66
2018-08-12T15:06:49.877Z,101034.17
2018-08-12T15:09:54.129Z,101030.23
2018-08-12T15:12:58.485Z,101026.77
2018-08-12T15:16:02.844Z,101021.05
2018-08-12T15:19:07.245Z,101017.59
2018-08-12T15:22:11.790Z,101015.83
2018-08-12T15:25:18.964Z,101010.59
2018-08-12T15:28:23.263Z,101009.28
2018-08-12T15:31:27.611Z,100992.73
2018-08-12T15:34:31.902Z,100988.79
2018-08-12T15:37:36.299Z,100983.58
2018-08-12T15:40:40.680Z,100972.20
2018-08-12T15:43:44.984Z,100963.46
2018-08-12T15:46:49.301Z,100959.98
2018-08-12T15:49:53.880Z,100956.05
2018-08-12T15:52:58.370Z,100953.87
2018-08-12T15:56:02.810Z,100948.19
2018-08-12T15:59:07.169Z,100942.53
2018-08-12T16:02:11.612Z,100942.54
2018-08-12T16:05:16.036Z,100935.53
2018-08-12T16:08:20.393Z,100935.55
2018-08-12T16:11:24.846Z,100924.63
2018-08-12T16:14:29.202Z,100918.95
2018-08-12T16:17:33.621Z,100904.12
2018-08-12T16:20:38.047Z,100900.63
2018-08-12T16:23:42.441Z,100897.15
2018-08-12T16:26:46.877Z,100900.63
2018-08-12T16:29:51.249Z,100894.08
2018-08-12T16:32:55.662Z,100894.95
2018-08-12T16:36:00.045Z,100885.38
2018-08-12T16:39:06.734Z,100881.84
2018-08-12T16:42:11.149Z,100879.23
2018-08-12T16:45:16.236Z,100873.56
2018-08-12T16:48:20.622Z,100869.21
2018-08-12T16:51:24.973Z,100870.98
2018-08-12T16:54:29.314Z,100869.23
2018-08-12T16:57:33.762Z,100860.48
2018-08-12T17:00:38.098Z,100854.81
2018-08-12T17:03:42.541Z,100850.45
2018-08-12T17:06:46.870Z,100843.47
2018-08-12T17:09:51.142Z,100833.84
2018-08-12T17:12:55.425Z,100836.45
2018-08-12T17:15:59.753Z,100825.10
2018-08-12T17:19:04.112Z,100821.59
2018-08-12T17:22:08.543Z,100822.92
2018-08-12T17:25:12.869Z,100818.56
2018-08-12T17:28:17.266Z,100819.02
2018-08-12T17:31:21.601Z,100814.17
2018-08-12T17:34:25.988Z,100822.04
2018-08-12T17:37:30.968Z,100822.92
2018-08-12T17:40:35.302Z,100825.98
2018-08-12T17:43:39.651Z,100825.55
2018-08-12T17:46:43.994Z,100819.84
2018-08-12T17:49:48.378Z,100825.52
2018-08-12T17:52:52.731Z,100837.75
2018-08-12T17:55:57.073Z,100836.87
2018-08-12T17:59:01.376Z,100837.73
2018-08-12T18:02:05.830Z,100831.61
2018-08-12T18:05:10.665Z,100825.47
2018-08-12T18:08:15.061Z,100821.98
2018-08-12T18:11:19.477Z,100820.25
2018-08-12T18:14:24.896Z,100817.59
2018-08-12T18:17:29.214Z,100812.36
2018-08-12T18:20:33.704Z,100814.09
2018-08-12T18:23:38.079Z,100818.90
2018-08-12T18:26:42.531Z,100814.97
2018-08-12T18:29:46.840Z,100818.88
2018-08-12T18:32:51.122Z,100814.08
2018-08-12T18:35:55.451Z,100820.61
2018-08-12T18:38:59.800Z,100811.88
2018-08-12T18:42:04.213Z,100805.77
2018-08-12T18:45:08.985Z,100806.20
2018-08-12T18:48:13.313Z,100801.82
2018-08-12T18:51:17.751Z,100809.27
2018-08-12T18:54:22.044Z,100799.22
2018-08-12T18:57:26.431Z,100806.18
2018-08-12T19:00:30.865Z,100800.95
2018-08-12T19:03:35.281Z,100795.72
2018-08-12T19:06:39.661Z,100794.82
2018-08-12T19:09:44.005Z,100804.44
2018-08-12T19:12:48.396Z,100796.58
2018-08-12T19:15:52.732Z,100790.48
2018-08-12T19:18:57.305Z,100787.38
2018-08-12T19:22:01.642Z,100788.70
2018-08-12T19:25:06.747Z,100790.01
2018-08-12T19:28:11.250Z,100787.38
2018-08-12T19:31:16.335Z,100782.16
2018-08-12T19:34:20.683Z,100786.09
2018-08-12T19:37:25.007Z,100787.83
2018-08-12T19:40:29.309Z,100782.14
2018-08-12T19:43:33.693Z,100784.77
2018-08-12T19:46:38.545Z,100787.81
2018-08-12T19:49:42.919Z,100791.75
2018-08-12T19:52:47.356Z,100786.95
2018-08-12T19:55:51.750Z,100785.19
2018-08-12T19:58:56.093Z,100787.82
2018-08-12T20:02:00.488Z,100789.99
2018-08-12T20:05:04.957Z,100796.97
2018-08-12T20:08:09.336Z,100797.42
2018-08-12T20:11:13.682Z,100790.41
2018-08-12T20:14:18.075Z,100787.80
2018-08-12T20:17:22.408Z,100788.66
2018-08-12T20:20:26.856Z,100786.03
2018-08-12T20:23:31.244Z,100775.55
2018-08-12T20:26:35.594Z,100775.55
2018-08-12T20:29:40.020Z,100772.94
2018-08-12T20:32:44.381Z,100772.04
2018-08-12T20:35:48.828Z,100773.82
2018-08-12T20:38:53.217Z,100765.95
2018-08-12T20:41:57.645Z,100766.37
2018-08-12T20:45:02.020Z,100762.86
2018-08-12T20:48:06.525Z,100758.48
2018-08-12T20:51:11.068Z,100751.92
2018-08-12T20:54:15.397Z,100755.41
2018-08-12T20:57:19.781Z,100749.30
2018-08-12T21:00:24.240Z,100743.61
2018-08-12T21:03:28.609Z,100743.20
2018-08-12T21:06:32.948Z,100740.12
2018-08-12T21:09:37.382Z,100739.70
2018-08-12T21:12:41.925Z,100739.68
2018-08-12T21:15:46.309Z,100743.62
2018-08-12T21:18:50.621Z,100740.99
2018-08-12T21:21:55.037Z,100736.17
2018-08-12T21:24:59.484Z,100737.06
2018-08-12T21:41:08.172Z,100740.55
2018-08-12T21:44:12.568Z,100733.10
2018-08-12T21:47:16.872Z,100724.81
2018-08-12T21:50:21.180Z,100722.61
2018-08-12T21:53:25.544Z,100725.68
2018-08-12T21:56:29.883Z,100724.37
2018-08-12T21:59:34.260Z,100721.77
2018-08-12T22:02:38.600Z,100716.11
2018-08-12T22:05:42.920Z,100713.94
2018-08-12T22:08:47.271Z,100716.08
2018-08-12T22:11:51.663Z,100716.98
2018-08-12T22:14:55.949Z,100713.48
2018-08-12T22:18:00.288Z,100712.59
2018-08-12T22:21:04.589Z,100706.48
2018-08-12T22:24:08.959Z,100712.17
2018-08-12T22:27:13.320Z,100706.48
2018-08-12T22:30:17.691Z,100712.17
2018-08-12T22:33:22.088Z,100711.72
2018-08-12T22:36:26.414Z,100707.81
2018-08-12T22:39:30.722Z,100695.59
2018-08-12T22:42:35.058Z,100691.69
2018-08-12T22:45:39.338Z,100700.88
2018-08-12T22:48:43.709Z,100697.80
2018-08-12T22:51:47.997Z,100696.07
2018-08-12T22:54:52.325Z,100697.41
2018-08-12T22:57:56.601Z,100700.89
2018-08-12T23:01:00.960Z,100702.22
2018-08-12T23:04:05.572Z,100699.60
2018-08-12T23:07:10.018Z,100695.23
2018-08-12T23:10:14.320Z,100698.70
2018-08-12T23:13:18.656Z,100690.87
2018-08-12T23:16:40.695Z,100693.94
2018-08-12T23:19:45.013Z,100693.05
2018-08-12T23:22:49.426Z,100693.05
2018-08-12T23:25:53.669Z,100698.70
2018-08-12T23:28:58.067Z,100697.42
2018-08-12T23:32:02.503Z,100699.19
2018-08-12T23:35:06.915Z,100687.83
2018-08-12T23:38:11.238Z,100683.45
2018-08-12T23:41:15.536Z,100675.16
2018-08-12T23:44:19.872Z,100676.95
2018-08-12T23:47:24.187Z,100675.19
2018-08-12T23:50:28.584Z,100680.85
2018-08-12T23:53:33.136Z,100671.26
2018-08-12T23:56:37.641Z,100672.12
2018-08-12T23:59:42.186Z,100670.39
